Time;durP1;ratioP1;P1;durP2;ratioP2;P2;SDS_P1;SDS_P2;PMS_P1;PMS_P2;Temp;Humidity;BMP_temperature;BMP_pressure;BME280_temperature;BME280_humidity;BME280_pressure;Samples;Min_cycle;Max_cycle;Signal;HPM_P1;HPM_P2
2022/10/13 00:01:30;;;;;;;9.93;7.18;;;12.50;99.90;;;;;;5056709;28;20252;-76
2022/10/13 00:03:57;;;;;;;7.68;5.32;;;12.50;99.90;;;;;;5040628;28;20556;-77
2022/10/13 00:06:30;;;;;;;9.88;5.85;;;12.40;99.90;;;;;;5055062;28;20225;-76
2022/10/13 00:09:01;;;;;;;15.50;5.10;;;12.40;99.90;;;;;;5041414;28;20263;-78
2022/10/13 00:11:30;;;;;;;9.57;5.88;;;12.40;99.90;;;;;;5045771;28;20231;-77
2022/10/13 00:14:04;;;;;;;7.90;5.28;;;12.40;99.90;;;;;;5037731;28;20299;-77
2022/10/13 00:16:33;;;;;;;8.35;4.90;;;12.40;99.90;;;;;;5052217;28;20224;-75
2022/10/13 00:19:00;;;;;;;4.45;4.05;;;12.30;99.90;;;;;;5017040;28;20618;-77
2022/10/13 00:21:28;;;;;;;10.70;5.22;;;12.30;99.90;;;;;;5049778;28;20225;-78
2022/10/13 00:23:55;;;;;;;7.78;5.45;;;12.30;99.90;;;;;;5037181;28;20678;-77
2022/10/13 00:26:25;;;;;;;9.27;5.28;;;12.30;99.90;;;;;;5037432;28;20287;-76
2022/10/13 00:28:53;;;;;;;7.05;4.57;;;12.30;99.90;;;;;;5032701;28;20256;-76
2022/10/13 00:31:22;;;;;;;9.65;5.53;;;12.20;99.90;;;;;;5047919;28;20232;-78
2022/10/13 00:33:49;;;;;;;10.15;5.63;;;12.20;99.90;;;;;;5034471;28;20580;-77
2022/10/13 00:36:17;;;;;;;11.20;6.95;;;12.20;99.90;;;;;;5052440;28;20221;-77
2022/10/13 00:38:45;;;;;;;8.93;5.85;;;12.10;99.90;;;;;;5027371;28;20221;-76
2022/10/13 00:41:21;;;;;;;13.48;6.03;;;12.10;99.90;;;;;;5046906;28;20556;-77
2022/10/13 00:43:52;;;;;;;7.82;5.35;;;12.10;99.90;;;;;;5045200;28;20224;-75
2022/10/13 00:46:29;;;;;;;8.88;6.35;;;12.00;99.90;;;;;;5050891;28;20212;-76
2022/10/13 00:49:02;;;;;;;9.52;5.85;;;12.00;99.90;;;;;;5030580;28;20243;-76
2022/10/13 00:54:28;;;;;;;10.45;5.65;;;11.90;99.90;;;;;;5040529;28;20224;-76
2022/10/13 00:56:56;;;;;;;9.05;5.10;;;11.90;99.90;;;;;;5038162;28;20543;-76
2022/10/13 00:59:28;;;;;;;11.40;5.15;;;11.80;99.90;;;;;;5045494;28;20221;-75
2022/10/13 01:01:57;;;;;;;10.77;6.45;;;11.80;99.90;;;;;;5045758;28;20674;-76
2022/10/13 01:04:37;;;;;;;8.13;7.07;;;11.80;99.90;;;;;;5039388;28;20256;-76
2022/10/13 01:07:07;;;;;;;15.40;7.70;;;11.80;99.90;;;;;;5042443;28;20638;-76
2022/10/13 01:09:36;;;;;;;8.85;7.13;;;11.70;99.90;;;;;;5032237;28;20227;-76
2022/10/13 01:12:11;;;;;;;9.02;7.18;;;11.70;99.90;;;;;;5051606;28;20231;-76
2022/10/13 01:14:47;;;;;;;8.57;6.28;;;11.70;99.90;;;;;;5047582;28;20216;-76
2022/10/13 01:17:21;;;;;;;6.65;5.80;;;11.70;99.90;;;;;;5052174;28;20220;-77
2022/10/13 01:20:21;;;;;;;8.93;5.97;;;11.70;99.90;;;;;;5046317;28;20217;-77
2022/10/13 01:23:03;;;;;;;9.20;6.47;;;11.60;99.90;;;;;;5032633;28;20236;-77
2022/10/13 01:25:49;;;;;;;7.10;5.53;;;11.60;99.90;;;;;;5051017;28;20231;-76
2022/10/13 01:28:40;;;;;;;17.92;9.10;;;11.60;99.90;;;;;;5041264;28;20287;-77
2022/10/13 01:31:18;;;;;;;11.30;5.72;;;11.60;99.90;;;;;;5052132;28;20224;-77
2022/10/13 01:34:03;;;;;;;7.10;5.80;;;11.60;99.90;;;;;;5048540;28;20577;-76
2022/10/13 01:36:38;;;;;;;7.40;5.05;;;11.50;99.90;;;;;;5051443;28;20533;-76
2022/10/13 01:39:15;;;;;;;6.35;5.45;;;11.50;99.90;;;;;;5047434;28;20302;-77
2022/10/13 01:41:46;;;;;;;10.27;6.25;;;11.50;99.90;;;;;;5043817;28;20228;-77
2022/10/13 01:44:21;;;;;;;13.48;6.80;;;11.50;99.90;;;;;;5033231;28;20304;-77
2022/10/13 01:46:53;;;;;;;8.68;5.50;;;11.50;99.90;;;;;;5044891;28;20295;-77
2022/10/13 01:49:24;;;;;;;7.25;5.40;;;11.50;99.90;;;;;;5035222;28;20675;-77
2022/10/13 01:51:52;;;;;;;5.93;5.10;;;11.50;99.90;;;;;;5046236;28;20655;-76
2022/10/13 01:54:19;;;;;;;11.80;6.70;;;11.50;99.90;;;;;;5045280;28;20336;-76
2022/10/13 01:56:52;;;;;;;9.80;5.53;;;11.50;99.90;;;;;;5035908;28;20226;-77
2022/10/13 01:59:20;;;;;;;8.85;6.28;;;11.50;99.90;;;;;;5047345;28;20308;-77
2022/10/13 02:02:00;;;;;;;10.30;5.85;;;11.40;99.90;;;;;;5048740;28;20316;-76
2022/10/13 02:04:39;;;;;;;6.70;5.85;;;11.40;99.90;;;;;;5043217;28;20220;-77
2022/10/13 02:07:11;;;;;;;10.05;6.10;;;11.40;99.90;;;;;;5038688;28;20228;-76
2022/10/13 02:09:46;;;;;;;7.63;5.70;;;11.40;99.90;;;;;;5039928;28;20664;-77
2022/10/13 02:12:22;;;;;;;8.82;7.20;;;11.40;99.90;;;;;;5040118;28;20228;-77
2022/10/13 02:14:51;;;;;;;7.95;5.40;;;11.40;99.90;;;;;;5039303;28;20233;-77
2022/10/13 02:17:20;;;;;;;10.75;6.53;;;11.40;99.90;;;;;;5041898;28;20248;-77
2022/10/13 02:19:48;;;;;;;10.13;5.40;;;11.40;99.90;;;;;;5049575;28;20232;-77
2022/10/13 02:22:17;;;;;;;7.53;5.45;;;11.40;99.90;;;;;;5042550;28;20286;-77
2022/10/13 02:24:52;;;;;;;9.05;5.90;;;11.40;99.90;;;;;;5051869;28;20934;-77
2022/10/13 02:27:19;;;;;;;9.60;6.07;;;11.40;99.90;;;;;;5051343;28;20303;-77
2022/10/13 02:29:52;;;;;;;8.55;6.70;;;11.40;99.90;;;;;;5052930;28;20239;-77
2022/10/13 02:32:21;;;;;;;10.90;5.90;;;11.40;99.90;;;;;;5024160;28;20307;-77
2022/10/13 02:34:48;;;;;;;9.93;6.90;;;11.40;99.90;;;;;;5052420;28;20217;-77
2022/10/13 02:37:18;;;;;;;8.82;5.97;;;11.30;99.90;;;;;;5041532;28;20220;-76
2022/10/13 02:39:45;;;;;;;9.68;5.93;;;11.40;99.90;;;;;;5051694;28;20678;-76
2022/10/13 02:42:13;;;;;;;9.05;5.80;;;11.30;99.90;;;;;;5051343;28;20610;-77
2022/10/13 02:44:40;;;;;;;8.10;6.22;;;11.40;99.90;;;;;;5052580;28;20279;-76
2022/10/13 02:47:07;;;;;;;9.63;6.45;;;11.30;99.90;;;;;;5052360;28;20248;-76
2022/10/13 02:49:35;;;;;;;10.98;6.57;;;11.40;99.90;;;;;;5052186;28;20251;-76
2022/10/13 02:52:03;;;;;;;7.13;5.53;;;11.40;99.90;;;;;;5052764;28;20228;-76
2022/10/13 02:54:30;;;;;;;9.20;6.32;;;11.40;99.90;;;;;;5041869;28;20263;-76
2022/10/13 02:56:57;;;;;;;10.38;6.20;;;11.40;99.90;;;;;;5051601;28;20535;-75
2022/10/13 02:59:24;;;;;;;13.88;6.65;;;11.40;99.90;;;;;;5052357;28;20304;-78
2022/10/13 03:01:51;;;;;;;10.13;5.32;;;11.50;99.90;;;;;;5055637;28;20278;-78
2022/10/13 03:04:18;;;;;;;5.68;5.15;;;11.50;99.90;;;;;;5054779;28;20565;-77
2022/10/13 03:06:47;;;;;;;7.88;6.32;;;11.50;99.90;;;;;;5055950;28;20286;-77
2022/10/13 03:09:14;;;;;;;9.93;6.15;;;11.60;99.90;;;;;;5055628;28;20225;-77
2022/10/13 03:11:44;;;;;;;6.93;5.55;;;11.60;99.90;;;;;;5055463;28;20225;-77
2022/10/13 03:14:11;;;;;;;6.07;5.47;;;11.60;99.90;;;;;;5056536;28;20224;-77
2022/10/13 03:16:38;;;;;;;10.90;6.57;;;11.60;99.90;;;;;;5055504;28;20224;-76
2022/10/13 03:19:08;;;;;;;7.53;6.30;;;11.50;99.90;;;;;;5056176;28;20228;-76
2022/10/13 03:21:35;;;;;;;9.95;5.55;;;11.60;99.90;;;;;;5055839;28;20593;-77
2022/10/13 03:24:05;;;;;;;9.93;5.72;;;11.50;99.90;;;;;;5055589;28;20320;-77
2022/10/13 03:26:32;;;;;;;8.68;6.97;;;11.60;99.90;;;;;;5055651;28;20230;-77
2022/10/13 03:29:02;;;;;;;8.80;5.80;;;11.50;99.90;;;;;;5056317;28;20595;-76
2022/10/13 03:31:29;;;;;;;8.40;5.40;;;11.50;99.90;;;;;;5055275;28;20558;-77
2022/10/13 03:33:59;;;;;;;8.35;5.85;;;11.50;99.90;;;;;;5045581;28;20240;-78
2022/10/13 03:36:27;;;;;;;9.07;6.75;;;11.50;99.90;;;;;;5045659;28;20539;-77
2022/10/13 03:38:53;;;;;;;12.73;9.60;;;11.50;99.90;;;;;;5055083;28;20224;-77
2022/10/13 03:41:22;;;;;;;11.70;9.07;;;11.50;99.90;;;;;;5055568;28;20221;-77
2022/10/13 03:43:49;;;;;;;11.82;7.78;;;11.40;99.90;;;;;;5055467;28;20299;-77
2022/10/13 03:46:18;;;;;;;10.55;6.68;;;11.40;99.90;;;;;;5055543;28;20236;-77
2022/10/13 03:48:45;;;;;;;15.90;7.70;;;11.40;99.90;;;;;;5044387;28;20244;-77
2022/10/13 03:51:15;;;;;;;10.55;7.47;;;11.40;99.90;;;;;;5055135;28;20225;-76
2022/10/13 03:53:46;;;;;;;13.50;7.78;;;11.40;99.90;;;;;;5055173;28;20559;-77
2022/10/13 03:56:16;;;;;;;8.13;6.57;;;11.40;99.90;;;;;;5055303;28;20228;-77
2022/10/13 03:58:45;;;;;;;8.88;7.00;;;11.30;99.90;;;;;;5046333;28;20283;-76
2022/10/13 04:01:13;;;;;;;11.27;6.78;;;11.40;99.90;;;;;;5055595;28;20623;-76
2022/10/13 04:03:41;;;;;;;7.55;5.93;;;11.30;99.90;;;;;;5053849;28;20616;-77
2022/10/13 04:06:09;;;;;;;10.23;7.47;;;11.30;99.90;;;;;;5055569;28;20312;-77
2022/10/13 04:08:37;;;;;;;9.82;6.32;;;11.30;99.90;;;;;;5054838;28;20300;-77
2022/10/13 04:11:06;;;;;;;9.25;6.57;;;11.30;99.90;;;;;;5054954;28;20252;-76
2022/10/13 04:13:34;;;;;;;9.00;6.40;;;11.40;99.90;;;;;;5054135;28;20678;-77
2022/10/13 04:16:10;;;;;;;9.57;6.38;;;11.30;99.90;;;;;;5054886;28;20734;-75
2022/10/13 04:18:37;;;;;;;9.55;5.88;;;11.30;99.90;;;;;;5046361;28;20229;-76
2022/10/13 04:21:09;;;;;;;9.10;6.20;;;11.40;99.90;;;;;;5054320;28;20259;-77
2022/10/13 04:23:36;;;;;;;9.07;6.55;;;11.40;99.90;;;;;;5054512;28;20225;-76
2022/10/13 04:26:14;;;;;;;;;;;;;;;;;;;;;
2022/10/13 04:28:44;;;;;;;10.05;7.13;;;11.40;99.90;;;;;;5045144;28;20531;-77
2022/10/13 04:31:12;;;;;;;7.47;6.35;;;11.40;99.90;;;;;;5055809;28;20221;-77
2022/10/13 04:33:57;;;;;;;11.32;7.18;;;11.40;99.90;;;;;;5054617;28;20632;-76
2022/10/13 04:36:25;;;;;;;9.48;6.47;;;11.30;99.90;;;;;;5054983;28;20535;-76
2022/10/13 04:38:54;;;;;;;11.73;6.95;;;11.30;99.90;;;;;;5044512;28;20232;-77
2022/10/13 04:41:22;;;;;;;8.48;7.13;;;11.30;99.90;;;;;;5054131;28;20532;-78
2022/10/13 04:46:41;;;;;;;8.75;7.50;;;11.30;99.90;;;;;;5051858;28;20227;-76
2022/10/13 04:49:08;;;;;;;10.52;6.88;;;11.30;99.90;;;;;;5051941;28;20232;-77
2022/10/13 04:51:41;;;;;;;8.65;7.65;;;11.30;99.90;;;;;;5054568;28;20316;-76
2022/10/13 04:54:16;;;;;;;10.35;7.88;;;11.30;99.90;;;;;;5054156;28;20228;-77
2022/10/13 04:56:52;;;;;;;15.13;7.95;;;11.30;99.90;;;;;;5053325;28;20216;-79
2022/10/13 04:59:19;;;;;;;11.27;7.63;;;11.30;99.90;;;;;;5053834;28;20235;-76
2022/10/13 05:01:48;;;;;;;8.05;7.10;;;11.30;99.90;;;;;;5054261;28;20636;-76
2022/10/13 05:04:15;;;;;;;10.55;7.60;;;11.40;99.90;;;;;;5043992;28;20256;-76
2022/10/13 05:06:43;;;;;;;9.80;8.35;;;11.40;99.90;;;;;;5051833;28;20299;-77
2022/10/13 05:09:15;;;;;;;12.82;7.78;;;11.40;99.90;;;;;;5053677;28;20567;-76
2022/10/13 05:11:44;;;;;;;11.00;7.32;;;11.40;99.90;;;;;;5054006;28;20217;-77
2022/10/13 05:14:18;;;;;;;10.95;8.23;;;11.40;99.90;;;;;;5043010;28;20304;-76
2022/10/13 05:16:45;;;;;;;15.50;8.65;;;11.40;99.90;;;;;;5053106;28;20282;-77
2022/10/13 05:19:13;;;;;;;10.13;7.32;;;11.40;99.90;;;;;;5053520;28;20304;-77
2022/10/13 05:21:41;;;;;;;7.85;6.85;;;11.40;99.90;;;;;;5053006;28;20320;-77
2022/10/13 05:24:12;;;;;;;9.38;7.47;;;11.40;99.90;;;;;;5051804;28;20224;-76
2022/10/13 05:26:39;;;;;;;13.23;7.25;;;11.40;99.90;;;;;;5053793;28;20227;-77
2022/10/13 05:29:19;;;;;;;14.52;8.07;;;11.40;99.90;;;;;;5051348;28;20300;-77
2022/10/13 05:31:46;;;;;;;12.85;7.00;;;11.40;99.90;;;;;;5052653;28;20228;-77
2022/10/13 05:34:15;;;;;;;13.23;7.47;;;11.40;99.90;;;;;;5044656;28;20559;-77
2022/10/13 05:36:42;;;;;;;10.70;7.57;;;11.40;99.90;;;;;;5053334;28;20587;-77
2022/10/13 05:39:10;;;;;;;10.13;7.05;;;11.40;99.90;;;;;;5053157;28;20224;-76
2022/10/13 05:41:38;;;;;;;11.63;6.47;;;11.40;99.90;;;;;;5052900;28;20693;-76
2022/10/13 05:44:16;;;;;;;12.50;8.65;;;11.40;99.90;;;;;;5043503;28;20236;-77
2022/10/13 05:46:43;;;;;;;7.60;6.90;;;11.40;99.90;;;;;;5043367;28;20243;-77
2022/10/13 05:49:17;;;;;;;9.30;7.00;;;11.40;99.90;;;;;;5053598;28;20228;-76
2022/10/13 05:51:49;;;;;;;9.35;7.25;;;11.40;99.90;;;;;;5052010;28;20306;-77
2022/10/13 05:54:28;;;;;;;9.73;8.23;;;11.40;99.90;;;;;;5052715;28;20576;-76
2022/10/13 05:56:59;;;;;;;12.13;8.30;;;11.40;99.90;;;;;;5052421;28;20653;-76
2022/10/13 05:59:30;;;;;;;9.80;8.60;;;11.40;99.90;;;;;;5053370;28;20262;-77
2022/10/13 06:01:57;;;;;;;7.90;7.00;;;11.40;99.90;;;;;;5042596;28;20259;-78
2022/10/13 06:04:30;;;;;;;12.48;7.80;;;11.40;99.90;;;;;;5053232;28;20282;-77
2022/10/13 06:07:02;;;;;;;13.50;7.90;;;11.40;99.90;;;;;;5042648;28;20389;-76
2022/10/13 06:09:36;;;;;;;11.07;8.10;;;11.40;99.90;;;;;;5052354;28;20254;-76
2022/10/13 06:12:03;;;;;;;11.30;8.30;;;11.40;99.90;;;;;;5053066;28;20236;-76
2022/10/13 06:14:30;;;;;;;11.95;8.60;;;11.40;99.90;;;;;;5052561;28;20304;-77
2022/10/13 06:16:57;;;;;;;9.40;7.82;;;11.30;99.90;;;;;;5052835;28;20307;-76
2022/10/13 06:19:26;;;;;;;9.82;8.80;;;11.40;99.90;;;;;;5053016;28;20319;-76
2022/10/13 06:21:53;;;;;;;12.07;8.35;;;11.40;99.90;;;;;;5041816;28;20235;-76
2022/10/13 06:24:20;;;;;;;12.68;8.43;;;11.40;99.90;;;;;;5052553;28;20233;-77
2022/10/13 06:26:47;;;;;;;13.40;8.50;;;11.40;99.90;;;;;;5044117;28;20216;-76
2022/10/13 06:29:14;;;;;;;12.00;8.80;;;11.40;99.90;;;;;;5053141;28;20236;-76
2022/10/13 06:31:41;;;;;;;12.85;8.80;;;11.40;99.90;;;;;;5052792;28;20228;-76
2022/10/13 06:34:08;;;;;;;11.18;9.40;;;11.50;99.90;;;;;;5042193;28;20228;-77
2022/10/13 06:36:37;;;;;;;16.75;8.70;;;11.50;99.90;;;;;;5046237;28;20228;-76
2022/10/13 06:39:04;;;;;;;12.45;8.70;;;11.60;99.90;;;;;;5055497;28;20225;-76
2022/10/13 06:41:31;;;;;;;11.68;8.85;;;11.60;99.90;;;;;;5056445;28;20358;-76
2022/10/13 06:43:58;;;;;;;17.95;10.27;;;11.60;99.90;;;;;;5056480;28;20236;-75
2022/10/13 06:46:26;;;;;;;14.88;11.45;;;11.70;99.90;;;;;;5055827;28;20228;-76
2022/10/13 06:48:53;;;;;;;13.57;8.98;;;11.70;99.90;;;;;;5056640;28;20226;-76
2022/10/13 06:51:22;;;;;;;13.45;9.32;;;11.70;99.90;;;;;;5048308;28;20263;-76
2022/10/13 06:53:55;;;;;;;13.38;10.57;;;11.70;99.90;;;;;;5053657;28;20686;-77
2022/10/13 06:56:22;;;;;;;14.10;9.50;;;11.80;99.90;;;;;;5046035;28;20546;-76
2022/10/13 06:58:51;;;;;;;13.27;10.32;;;11.80;99.90;;;;;;5056474;28;20228;-76
2022/10/13 07:01:23;;;;;;;11.77;9.55;;;11.80;99.90;;;;;;5055004;28;20318;-77
2022/10/13 07:03:50;;;;;;;13.77;10.40;;;11.80;99.90;;;;;;5056584;28;20235;-76
2022/10/13 07:06:18;;;;;;;17.92;10.32;;;11.90;99.90;;;;;;5045461;28;20260;-78
2022/10/13 07:08:45;;;;;;;16.33;10.45;;;11.90;99.90;;;;;;5056209;28;20305;-77
2022/10/13 07:11:19;;;;;;;15.45;11.10;;;11.90;99.90;;;;;;5055290;28;20321;-78
2022/10/13 07:13:46;;;;;;;12.00;9.60;;;12.00;99.90;;;;;;5056189;28;20216;-76
2022/10/13 07:16:14;;;;;;;12.45;10.18;;;12.00;99.90;;;;;;5056245;28;20278;-76
2022/10/13 07:18:41;;;;;;;14.68;11.23;;;12.10;99.90;;;;;;5056199;28;20659;-76
2022/10/13 07:21:12;;;;;;;16.33;11.32;;;12.10;99.90;;;;;;5055726;28;20217;-78
2022/10/13 07:23:44;;;;;;;15.55;12.25;;;12.10;99.90;;;;;;5045090;28;20682;-77
2022/10/13 07:26:15;;;;;;;12.40;10.65;;;12.10;99.90;;;;;;5055493;28;20651;-77
2022/10/13 07:28:43;;;;;;;11.93;10.73;;;12.20;99.90;;;;;;5056277;28;20618;-78
2022/10/13 07:31:12;;;;;;;13.80;11.20;;;12.20;99.90;;;;;;5055124;28;20286;-77
2022/10/13 07:33:49;;;;;;;11.50;9.98;;;12.20;99.90;;;;;;5055074;28;20231;-77
2022/10/13 07:36:17;;;;;;;14.60;11.70;;;12.30;99.90;;;;;;5055423;28;20224;-77
2022/10/13 07:38:48;;;;;;;15.35;11.93;;;12.30;99.90;;;;;;5055911;28;20299;-77
2022/10/13 07:41:15;;;;;;;17.50;10.48;;;12.30;99.90;;;;;;5055281;28;20523;-76
2022/10/13 07:43:57;;;;;;;15.30;11.32;;;12.40;99.90;;;;;;5055894;28;20311;-76
2022/10/13 07:46:27;;;;;;;17.77;13.90;;;12.40;99.90;;;;;;5054370;28;20221;-78
2022/10/13 07:48:55;;;;;;;14.68;10.75;;;12.40;99.90;;;;;;5054918;28;20566;-77
2022/10/13 07:51:23;;;;;;;11.85;10.65;;;12.40;99.90;;;;;;5052993;28;20217;-77
2022/10/13 07:53:51;;;;;;;13.98;11.20;;;12.50;99.90;;;;;;5055422;28;20547;-77
2022/10/13 07:56:21;;;;;;;14.88;10.70;;;12.60;99.90;;;;;;5045921;28;20263;-77
2022/10/13 07:58:52;;;;;;;15.52;11.43;;;12.60;99.90;;;;;;5055206;28;20565;-76
2022/10/13 08:01:19;;;;;;;12.60;11.30;;;12.60;99.90;;;;;;5046826;28;20267;-77
2022/10/13 08:03:47;;;;;;;18.00;11.43;;;12.70;99.90;;;;;;5055022;28;20284;-78
2022/10/13 08:06:23;;;;;;;16.40;11.48;;;12.80;99.90;;;;;;5055387;28;20240;-78
2022/10/13 08:08:51;;;;;;;15.88;10.90;;;12.80;99.90;;;;;;5054481;28;20220;-77
2022/10/13 08:11:18;;;;;;;12.45;11.05;;;12.90;99.90;;;;;;5055399;28;20572;-77
2022/10/13 08:13:49;;;;;;;14.75;11.02;;;12.90;99.90;;;;;;5055511;28;20224;-77
2022/10/13 08:16:21;;;;;;;12.60;11.00;;;13.00;99.90;;;;;;5038732;28;20659;-78
2022/10/13 08:18:48;;;;;;;15.25;10.27;;;13.10;99.90;;;;;;5055463;28;20217;-77
2022/10/13 08:21:19;;;;;;;11.65;10.00;;;13.10;99.90;;;;;;5054644;28;20259;-77
2022/10/13 08:23:48;;;;;;;14.10;10.52;;;13.20;99.90;;;;;;5054550;28;20224;-75
2022/10/13 08:26:19;;;;;;;13.10;9.40;;;13.30;99.90;;;;;;5054472;28;20228;-77
2022/10/13 08:28:46;;;;;;;13.88;10.77;;;13.40;99.90;;;;;;5045296;28;20281;-76
2022/10/13 08:31:17;;;;;;;17.27;12.23;;;13.40;99.90;;;;;;5054212;28;20224;-77
2022/10/13 08:33:46;;;;;;;17.65;12.30;;;13.50;99.90;;;;;;5055369;28;20725;-77
2022/10/13 08:36:16;;;;;;;12.88;11.50;;;13.60;99.90;;;;;;5054933;28;20225;-75
2022/10/13 08:38:43;;;;;;;11.02;9.93;;;13.70;99.90;;;;;;5045128;28;20228;-77
2022/10/13 08:41:26;;;;;;;12.90;11.10;;;13.80;99.90;;;;;;5053770;28;20316;-77
2022/10/13 08:43:56;;;;;;;16.97;12.30;;;13.80;99.90;;;;;;5054396;28;20964;-77
2022/10/13 08:46:29;;;;;;;16.87;12.70;;;13.90;99.90;;;;;;5054202;28;20474;-77
2022/10/13 08:48:59;;;;;;;12.27;11.02;;;14.00;99.90;;;;;;5055004;28;20948;-77
2022/10/13 08:51:27;;;;;;;12.40;11.23;;;14.00;99.90;;;;;;5054199;28;20485;-77
2022/10/13 08:53:54;;;;;;;17.60;12.77;;;14.10;99.90;;;;;;5054870;28;20498;-77
2022/10/13 08:56:26;;;;;;;14.10;10.97;;;14.20;99.90;;;;;;5054057;28;20916;-77
2022/10/13 08:58:55;;;;;;;14.40;12.23;;;14.30;99.90;;;;;;5054478;28;20463;-76
2022/10/13 09:01:28;;;;;;;12.83;10.73;;;14.30;99.90;;;;;;5054126;28;20232;-76
2022/10/13 09:03:57;;;;;;;11.93;8.60;;;14.40;99.90;;;;;;5054837;28;20965;-76
2022/10/13 09:06:27;;;;;;;19.47;12.97;;;14.50;99.90;;;;;;5053786;28;20558;-77
2022/10/13 09:08:59;;;;;;;14.47;12.20;;;14.60;99.90;;;;;;5054967;28;20463;-76
2022/10/13 09:11:34;;;;;;;14.10;10.40;;;14.60;99.90;;;;;;5053070;28;20566;-77
2022/10/13 09:14:05;;;;;;;11.87;10.77;;;14.70;99.90;;;;;;5055024;28;20467;-77
2022/10/13 09:16:37;;;;;;;15.50;12.63;;;14.80;99.90;;;;;;5053916;28;20577;-78
2022/10/13 09:19:26;;;;;;;13.17;11.60;;;14.90;99.90;;;;;;5054764;28;20525;-77
2022/10/13 09:21:55;;;;;;;10.33;9.30;;;15.00;99.90;;;;;;5054062;28;20870;-77
2022/10/13 09:24:24;;;;;;;15.03;10.60;;;15.00;99.90;;;;;;5053339;28;20459;-77
2022/10/13 09:27:03;;;;;;;16.70;11.80;;;15.10;99.90;;;;;;5053100;28;20482;-76
2022/10/13 09:29:31;;;;;;;14.00;12.27;;;15.20;99.90;;;;;;5053901;28;20550;-77
2022/10/13 09:32:22;;;;;;;14.83;10.33;;;15.20;99.90;;;;;;5052497;28;20536;-76
2022/10/13 09:34:50;;;;;;;11.30;10.10;;;15.30;99.90;;;;;;5053443;28;20802;-76
2022/10/13 09:37:20;;;;;;;12.33;10.40;;;15.40;99.90;;;;;;5043135;28;20543;-77
2022/10/13 09:40:10;;;;;;;14.50;13.00;;;15.50;99.90;;;;;;5053262;28;20555;-76
2022/10/13 09:42:38;;;;;;;17.90;14.17;;;15.50;99.90;;;;;;5053902;28;21024;-77
2022/10/13 09:45:15;;;;;;;13.90;12.40;;;15.50;99.90;;;;;;5053537;28;20845;-76
2022/10/13 09:47:54;;;;;;;15.57;12.30;;;15.60;99.90;;;;;;5052438;28;20463;-77
2022/10/13 09:50:24;;;;;;;13.37;11.77;;;15.60;99.90;;;;;;5052663;28;20542;-77
2022/10/13 09:52:52;;;;;;;12.33;11.13;;;15.70;99.90;;;;;;5052771;28;20562;-77
2022/10/13 09:55:29;;;;;;;13.87;11.47;;;15.70;99.90;;;;;;5052686;28;20495;-77
2022/10/13 09:58:06;;;;;;;14.70;12.47;;;15.80;99.90;;;;;;5052827;28;20554;-77
2022/10/13 10:00:33;;;;;;;13.80;11.10;;;15.80;99.90;;;;;;5053307;28;20470;-77
2022/10/13 10:03:06;;;;;;;16.73;14.70;;;15.90;99.90;;;;;;5052576;28;20471;-77
2022/10/13 10:05:42;;;;;;;17.20;15.13;;;15.90;99.90;;;;;;5053289;28;20525;-76
2022/10/13 10:08:18;;;;;;;14.97;12.40;;;15.90;99.90;;;;;;5052244;28;20466;-76
2022/10/13 10:10:48;;;;;;;12.47;11.17;;;16.00;99.90;;;;;;5051787;28;20976;-77
2022/10/13 10:13:15;;;;;;;15.40;13.30;;;16.10;99.90;;;;;;5042736;28;20464;-77
2022/10/13 10:15:54;;;;;;;14.73;12.80;;;16.10;99.90;;;;;;5052221;28;20490;-77
2022/10/13 10:18:31;;;;;;;20.50;14.17;;;16.10;99.90;;;;;;5052984;28;20778;-76
2022/10/13 10:21:22;;;;;;;15.37;12.40;;;16.10;99.90;;;;;;5052179;28;20524;-77
2022/10/13 10:23:58;;;;;;;12.60;10.97;;;16.20;99.90;;;;;;5052656;28;20475;-77
2022/10/13 10:26:30;;;;;;;17.50;11.87;;;16.30;99.90;;;;;;5053149;28;20909;-77
2022/10/13 10:29:19;;;;;;;12.73;11.43;;;16.30;99.90;;;;;;5052533;28;20472;-76
2022/10/13 10:32:04;;;;;;;13.07;11.67;;;16.30;99.90;;;;;;5052854;28;20500;-77
2022/10/13 10:34:47;;;;;;;12.07;10.97;;;16.40;99.90;;;;;;5053271;28;20469;-76
2022/10/13 10:37:19;;;;;;;11.70;10.47;;;16.50;99.90;;;;;;5052911;28;20473;-77
2022/10/13 10:39:50;;;;;;;11.63;10.23;;;16.50;99.90;;;;;;5052503;28;20471;-76
2022/10/13 10:42:47;;;;;;;11.90;10.63;;;16.50;99.90;;;;;;5041563;28;20472;-76
2022/10/13 10:45:21;;;;;;;12.00;10.53;;;16.60;99.90;;;;;;5037418;28;20469;-76
2022/10/13 10:48:16;;;;;;;12.20;10.87;;;16.70;99.90;;;;;;5044268;28;20493;-77
2022/10/13 10:50:45;;;;;;;11.40;10.20;;;16.70;99.90;;;;;;5052889;28;20477;-78
2022/10/13 10:53:19;;;;;;;15.90;12.87;;;16.80;99.90;;;;;;5052358;28;20464;-78
2022/10/13 10:55:52;;;;;;;14.80;12.53;;;16.80;99.90;;;;;;5051198;28;20525;-78
2022/10/13 10:58:30;;;;;;;17.10;12.97;;;16.80;99.90;;;;;;5053242;28;20840;-77
2022/10/13 11:01:06;;;;;;;15.80;13.37;;;16.90;99.90;;;;;;5042993;28;20507;-77
2022/10/13 11:03:42;;;;;;;15.03;13.43;;;16.90;99.90;;;;;;5051745;28;20489;-77
2022/10/13 11:06:26;;;;;;;12.77;11.57;;;16.90;99.90;;;;;;5052152;28;20517;-77
2022/10/13 11:08:54;;;;;;;15.87;11.37;;;16.90;99.90;;;;;;5051965;28;20465;-77
2022/10/13 11:11:33;;;;;;;12.83;11.43;;;17.00;99.90;;;;;;5052823;28;20497;-76
2022/10/13 11:14:02;;;;;;;12.43;11.17;;;17.00;99.90;;;;;;5051602;28;20531;-77
2022/10/13 11:16:32;;;;;;;13.50;11.60;;;17.00;99.90;;;;;;5052597;28;20561;-77
2022/10/13 11:19:08;;;;;;;15.33;11.27;;;17.10;99.90;;;;;;5052384;28;20561;-76
2022/10/13 11:22:24;;;;;;;14.97;11.50;;;17.10;99.90;;;;;;5053879;28;20469;-76
2022/10/13 11:25:22;;;;;;;18.47;14.40;;;17.20;99.90;;;;;;5045960;28;20804;-77
2022/10/13 11:27:49;;;;;;;24.43;14.57;;;17.20;99.90;;;;;;5054596;28;20462;-77
2022/10/13 11:30:43;;;;;;;16.73;13.13;;;17.30;99.90;;;;;;5056360;28;21014;-77
2022/10/13 11:33:48;;;;;;;15.10;12.03;;;17.30;99.90;;;;;;5055599;28;20490;-76
2022/10/13 11:36:46;;;;;;;26.03;19.50;;;17.30;99.90;;;;;;5055341;28;20451;-77
2022/10/13 11:39:40;;;;;;;18.93;16.30;;;17.40;99.90;;;;;;5052555;28;20455;-76
2022/10/13 11:42:31;;;;;;;15.07;12.80;;;17.40;99.90;;;;;;5055270;28;20553;-77
2022/10/13 11:45:00;;;;;;;12.37;11.17;;;17.40;99.90;;;;;;5054847;28;20474;-76
2022/10/13 11:47:56;;;;;;;11.97;10.20;;;17.40;99.90;;;;;;5055296;28;20469;-78
2022/10/13 11:50:34;;;;;;;20.03;11.60;;;17.50;99.90;;;;;;5055650;28;20493;-77
2022/10/13 11:53:11;;;;;;;15.63;11.30;;;17.50;99.90;;;;;;5040739;28;20513;-77
2022/10/13 11:55:47;;;;;;;10.30;8.97;;;17.50;99.90;;;;;;5055389;28;20490;-77
2022/10/13 11:58:20;;;;;;;10.73;9.63;;;17.60;99.90;;;;;;5044750;28;20955;-76
2022/10/13 12:00:51;;;;;;;10.57;9.50;;;17.60;99.90;;;;;;5054469;28;20480;-77
2022/10/13 12:03:28;;;;;;;19.43;11.67;;;17.70;99.90;;;;;;5055080;28;20455;-77
2022/10/13 12:05:58;;;;;;;16.83;12.00;;;17.70;99.90;;;;;;5055338;28;20478;-77
2022/10/13 12:08:27;;;;;;;16.17;12.20;;;17.70;99.90;;;;;;5055061;28;20542;-77
2022/10/13 12:10:58;;;;;;;12.40;11.20;;;17.70;99.90;;;;;;5055369;28;20509;-77
2022/10/13 12:13:28;;;;;;;11.43;10.33;;;17.80;99.90;;;;;;5054580;28;20459;-77
2022/10/13 12:16:02;;;;;;;11.33;10.13;;;17.80;99.90;;;;;;5055399;28;20469;-77
2022/10/13 12:18:39;;;;;;;10.20;9.20;;;17.90;99.90;;;;;;5054233;28;20494;-77
2022/10/13 12:21:11;;;;;;;12.97;9.60;;;17.90;99.90;;;;;;5054703;28;20793;-77
2022/10/13 12:23:39;;;;;;;9.43;8.50;;;18.00;99.90;;;;;;5055132;28;21016;-76
2022/10/13 12:26:06;;;;;;;10.10;8.87;;;18.00;99.90;;;;;;5054448;28;21042;-76
2022/10/13 12:28:49;;;;;;;10.10;8.60;;;18.00;99.90;;;;;;5054953;28;20561;-76
2022/10/13 12:31:29;;;;;;;12.70;11.20;;;18.00;99.90;;;;;;5053941;28;20562;-76
2022/10/13 12:33:57;;;;;;;9.77;8.70;;;18.00;99.90;;;;;;5054475;28;20502;-76
2022/10/13 12:36:31;;;;;;;8.67;7.70;;;18.00;99.90;;;;;;5054377;28;20474;-76
2022/10/13 12:39:01;;;;;;;8.63;7.50;;;18.00;99.90;;;;;;5054670;28;20562;-75
2022/10/13 12:41:33;;;;;;;8.37;7.57;;;18.10;99.90;;;;;;5033779;28;20975;-76
2022/10/13 12:44:06;;;;;;;8.53;7.33;;;18.10;99.90;;;;;;5054045;28;20952;-76
2022/10/13 12:46:44;;;;;;;10.20;8.90;;;18.10;99.90;;;;;;5054212;28;20491;-75
2022/10/13 12:49:15;;;;;;;6.73;6.07;;;18.10;99.90;;;;;;5054789;28;20554;-77
2022/10/13 12:51:44;;;;;;;7.50;6.90;;;18.10;99.90;;;;;;5054412;28;20467;-77
2022/10/13 12:54:21;;;;;;;7.00;6.40;;;18.10;99.90;;;;;;5041202;28;20501;-77
2022/10/13 12:56:48;;;;;;;7.17;6.40;;;18.10;99.90;;;;;;5053799;28;20796;-78
2022/10/13 12:59:21;;;;;;;9.70;6.23;;;18.10;99.90;;;;;;5054495;28;20545;-76
2022/10/13 13:02:02;;;;;;;7.70;6.27;;;18.10;99.90;;;;;;5053733;28;20545;-76
2022/10/13 13:04:41;;;;;;;9.20;6.43;;;18.10;99.90;;;;;;5044303;28;20526;-75
2022/10/13 13:07:38;;;;;;;6.90;6.30;;;18.10;99.90;;;;;;5053587;28;20466;-78
2022/10/13 13:10:18;;;;;;;6.67;5.90;;;18.10;99.90;;;;;;5055896;28;20520;-75